EFIVENKR

Guest
Details From EFIV - Ivalo
To ENKR - HOYBUKTMOEN
Flight Number -
Tags generated
Created
Modified
Stats Distance 86 nm / 158 km
Max Altitude 0 ft / 0 m
Waypoints 3
Social Downloads 0
Likes 0
Share VATSIM

Download

Looking for another format? Having issues loading an existing format? Contact us
Advertisement - Login to hide

Notes

Basic altitude profile: - Ascent Rate: 2500ft/min - Ascent Speed: 250kts - Cruise Altitude: 35000ft - Cruise Speed: 420kts - Descent Rate: 1500ft/min - Descent Speed: 250kts Options: - Use NATs: yes - Use PACOTS: yes - Use low airways: yes - Use high airways: yes

Route

EFIV KIK ENKR

ID Type Via Altitude Latitude Longitude Leg Dist Tot Dist Heading (true) Name
O EFIV APT - 0 ft / 0 m 68.60661˚ 27.41923˚ - 0 nm - Ivalo
KIK VOR - 0 ft / 0 m 69.72379˚ 29.86911˚ 85 nm 85 nm 37° / 39° KIRKENES VOR-DME
O ENKR APT - 0 ft / 0 m 69.72522˚ 29.89080˚ 0 nm 85 nm 79° / 79° HOYBUKTMOEN

Altitude Profile

Advertisement - Login to hide

EFIV

Details ICAO EFIV (IVL)
Name Ivalo
Region Finland
Timezone Europe/Helsinki (UTC+2.0)
Stats Elevation 481 ft / 147 m (AMSL)
Location 68.606615° 27.419231°
Runways 2
Magnetic Variation 13.129° E

METAR

EFIV 171920Z AUTO 21011KT 9999 -SN OVC007 M11/M12 Q0999

Decode

TAF

Not found

Departure Runways

ID Width Length Bearing (true) Bearing (mag) Surface Threshold Offset Overrun Length
04 148 ft / 45 m 8,173 ft / 2,491 m 46.96° 33.83° Asphalt 0 ft / 0 m 721 ft / 220 m
08 148 ft / 45 m 2,616 ft / 797 m 92.19° 79.06° Asphalt 500 ft / 152 m 0 ft / 0 m
22 148 ft / 45 m 8,173 ft / 2,491 m 227.01° 213.88° Asphalt 0 ft / 0 m 209 ft / 64 m
26 148 ft / 45 m 2,616 ft / 797 m 272.21° 259.08° Asphalt 500 ft / 152 m 0 ft / 0 m

ENKR

Details ICAO ENKR (KKN)
Name HOYBUKTMOEN
Region Norway
Timezone Europe/Oslo (UTC+1.0)
Stats Elevation 283 ft / 86 m (AMSL)
Location 69.725215° 29.890800°
Runways 1
Magnetic Variation 14.947° E

METAR

ENKR 171920Z 21009KT 9999 BKN049 M09/M12 Q0998 RMK WIND 731FT 22017KT

Decode

TAF

Not found

Destination Runways

ID Width Length Bearing (true) Bearing (mag) Surface Threshold Offset Overrun Length
06 148 ft / 45 m 6,192 ft / 1,887 m 69.03° 54.08° Asphalt 184 ft / 56 m 0 ft / 0 m
24 148 ft / 45 m 6,192 ft / 1,887 m 249.07° 234.12° Asphalt 1,450 ft / 442 m 0 ft / 0 m

Approach Navaids

Runway Type Ident Frequency Range Bearing (true) Bearing (mag) Slope Elevation
24 Localiser KR 110.30 MHz 18 nm / 33 km 249.76° 234.81° - 283 ft / 86 m (AMSL)
24 Glidescope KR 110.30 MHz 10 nm / 19 km 249.05° 234.10° 3.40° 283 ft / 86 m (AMSL)